Time;durP1;ratioP1;P1;durP2;ratioP2;P2;SDS_P1;SDS_P2;PMS_P1;PMS_P2;Temp;Humidity;BMP_temperature;BMP_pressure;BME280_temperature;BME280_humidity;BME280_pressure;Samples;Min_cycle;Max_cycle;Signal;HPM_P1;HPM_P2
2022/06/30 00:01:14;;;;;;;1.83;1.73;;;;;;;;;;4981045;28;20584;-63
2022/06/30 00:03:45;;;;;;;2.17;1.90;;;;;;;;;;4985344;28;20949;-62
2022/06/30 00:06:17;;;;;;;2.03;1.60;;;;;;;;;;4975042;28;20180;-62
2022/06/30 00:08:49;;;;;;;2.20;2.00;;;;;;;;;;4964540;28;20286;-62
2022/06/30 00:11:19;;;;;;;2.60;2.20;;;;;;;;;;4980545;28;20204;-63
2022/06/30 00:13:51;;;;;;;2.10;1.90;;;;;;;;;;4995847;28;20251;-63
2022/06/30 00:16:25;;;;;;;2.97;2.00;;;;;;;;;;4980860;28;20204;-62
2022/06/30 00:18:53;;;;;;;2.83;2.03;;;;;;;;;;4975487;28;20223;-62
2022/06/30 00:21:24;;;;;;;3.53;1.93;;;;;;;;;;4980666;28;20234;-62
2022/06/30 00:23:55;;;;;;;6.23;1.80;;;;;;;;;;4968533;28;20199;-62
2022/06/30 00:26:28;;;;;;;2.80;1.77;;;;;;;;;;4961139;28;20200;-62
2022/06/30 00:28:57;;;;;;;2.30;2.10;;;;;;;;;;4977015;28;20228;-63
2022/06/30 00:31:30;;;;;;;2.77;1.90;;;;;;;;;;4980789;28;20196;-63
2022/06/30 00:34:03;;;;;;;3.13;1.97;;;;;;;;;;4987853;28;20232;-63
2022/06/30 00:36:31;;;;;;;1.93;1.83;;;;;;;;;;4987524;28;20226;-62
2022/06/30 00:38:59;;;;;;;2.40;2.00;;;;;;;;;;4984148;28;20216;-62
2022/06/30 00:41:28;;;;;;;3.07;2.23;;;;;;;;;;4987173;28;20212;-63
2022/06/30 00:43:58;;;;;;;2.20;2.00;;;;;;;;;;4958277;28;20212;-62
2022/06/30 00:46:28;;;;;;;2.53;2.07;;;;;;;;;;4987754;28;20262;-63
2022/06/30 00:48:59;;;;;;;2.27;2.07;;;;;;;;;;4962296;28;20255;-62
2022/06/30 00:51:27;;;;;;;2.30;1.97;;;;;;;;;;4970429;28;20200;-62
2022/06/30 00:54:06;;;;;;;2.77;2.47;;;;;;;;;;5001160;28;20200;-62
2022/06/30 00:56:39;;;;;;;2.77;2.23;;;;;;;;;;4985365;28;20188;-62
2022/06/30 00:59:10;;;;;;;4.00;3.07;;;;;;;;;;4992542;28;20230;-62
2022/06/30 01:01:37;;;;;;;3.23;2.57;;;;;;;;;;4974686;28;20236;-62
2022/06/30 01:04:10;;;;;;;3.23;2.00;;;;;;;;;;4996409;28;20243;-62
2022/06/30 01:06:44;;;;;;;2.27;2.07;;;;;;;;;;4984585;28;20223;-62
2022/06/30 01:12:41;;;;;;;2.10;1.90;;;;;;;;;;4964665;28;20657;-62
2022/06/30 01:14:56;;;;;;;3.63;2.30;;;;;;;;;;4978715;28;20779;-62
2022/06/30 01:17:25;;;;;;;3.60;2.13;;;;;;;;;;4987588;28;20219;-62
2022/06/30 01:19:54;;;;;;;2.67;2.10;;;;;;;;;;4987279;28;20226;-63
2022/06/30 01:22:26;;;;;;;2.27;2.07;;;;;;;;;;4983914;28;20231;-62
2022/06/30 01:24:59;;;;;;;2.40;2.20;;;;;;;;;;4981747;28;20309;-62
2022/06/30 01:27:31;;;;;;;2.63;2.30;;;;;;;;;;4978115;28;20228;-62
2022/06/30 01:30:01;;;;;;;2.80;2.60;;;;;;;;;;4987241;28;20207;-62
2022/06/30 01:32:31;;;;;;;2.47;2.30;;;;;;;;;;4987043;28;20204;-62
2022/06/30 01:34:59;;;;;;;2.93;2.53;;;;;;;;;;4995982;28;20195;-62
2022/06/30 01:37:44;;;;;;;2.23;2.10;;;;;;;;;;4985057;28;20677;-63
2022/06/30 01:40:15;;;;;;;2.23;2.03;;;;;;;;;;4967860;28;20217;-62
2022/06/30 01:42:49;;;;;;;2.67;2.47;;;;;;;;;;4968751;28;20328;-62
2022/06/30 01:45:23;;;;;;;3.20;2.90;;;;;;;;;;4970423;28;20196;-62
2022/06/30 01:47:56;;;;;;;2.50;2.17;;;;;;;;;;4987173;28;20204;-62
2022/06/30 01:50:38;;;;;;;3.33;2.40;;;;;;;;;;4967585;28;20638;-62
2022/06/30 01:53:10;;;;;;;2.60;2.40;;;;;;;;;;4985823;28;20196;-63
2022/06/30 01:55:45;;;;;;;2.53;2.33;;;;;;;;;;4991893;28;20743;-63
2022/06/30 01:58:17;;;;;;;3.17;2.80;;;;;;;;;;4965808;28;20203;-62
2022/06/30 02:00:45;;;;;;;2.60;2.30;;;;;;;;;;4984746;28;20200;-62
2022/06/30 02:03:19;;;;;;;2.50;2.30;;;;;;;;;;4991031;28;20211;-63
2022/06/30 02:05:55;;;;;;;3.23;2.90;;;;;;;;;;4987038;28;20629;-62
2022/06/30 02:08:31;;;;;;;3.30;3.00;;;;;;;;;;4989546;28;20200;-63
2022/06/30 02:11:08;;;;;;;2.90;2.70;;;;;;;;;;4990656;28;20192;-63
2022/06/30 02:13:43;;;;;;;3.00;2.77;;;;;;;;;;4968933;28;20231;-62
2022/06/30 02:16:15;;;;;;;3.00;2.70;;;;;;;;;;4989933;28;20203;-62
2022/06/30 02:18:59;;;;;;;3.57;2.60;;;;;;;;;;4985907;28;20231;-63
2022/06/30 02:21:32;;;;;;;3.00;2.80;;;;;;;;;;4990858;28;20696;-63
2022/06/30 02:24:04;;;;;;;2.60;2.40;;;;;;;;;;4973838;28;20196;-62
2022/06/30 02:26:36;;;;;;;2.40;2.30;;;;;;;;;;4984025;28;20205;-63
2022/06/30 02:29:04;;;;;;;3.00;2.60;;;;;;;;;;4989745;28;20204;-63
2022/06/30 02:31:35;;;;;;;3.70;2.80;;;;;;;;;;4990030;28;20260;-62
2022/06/30 02:34:06;;;;;;;3.00;2.80;;;;;;;;;;4990267;28;20292;-62
2022/06/30 02:36:39;;;;;;;3.57;3.23;;;;;;;;;;4985555;28;20247;-62
2022/06/30 02:39:11;;;;;;;2.80;2.60;;;;;;;;;;4984657;28;20204;-63
2022/06/30 02:41:41;;;;;;;3.33;2.70;;;;;;;;;;4973821;28;20243;-62
2022/06/30 02:44:13;;;;;;;3.10;2.90;;;;;;;;;;4989601;28;20280;-63
2022/06/30 02:46:50;;;;;;;3.40;3.07;;;;;;;;;;4998801;28;20692;-63
2022/06/30 02:49:22;;;;;;;3.30;3.00;;;;;;;;;;4984922;28;20227;-63
2022/06/30 02:51:54;;;;;;;3.20;3.00;;;;;;;;;;4972723;28;20259;-63
2022/06/30 02:54:24;;;;;;;3.00;2.80;;;;;;;;;;4972993;28;20561;-63
2022/06/30 02:56:56;;;;;;;3.60;3.30;;;;;;;;;;4986357;28;20201;-63
2022/06/30 02:59:27;;;;;;;3.13;2.83;;;;;;;;;;4972739;28;20668;-63
2022/06/30 03:02:02;;;;;;;2.93;2.73;;;;;;;;;;4969676;28;20228;-63
2022/06/30 03:04:34;;;;;;;3.63;3.30;;;;;;;;;;4986439;28;20521;-62
2022/06/30 03:07:07;;;;;;;3.43;3.13;;;;;;;;;;4986176;28;20852;-63
2022/06/30 03:09:36;;;;;;;3.20;3.00;;;;;;;;;;4956215;28;20192;-62
2022/06/30 03:12:10;;;;;;;5.07;2.90;;;;;;;;;;4989380;28;20196;-62
2022/06/30 03:14:42;;;;;;;3.33;3.13;;;;;;;;;;4983254;28;20256;-62
2022/06/30 03:17:14;;;;;;;3.73;3.33;;;;;;;;;;4986659;28;20227;-62
2022/06/30 03:19:43;;;;;;;3.30;3.10;;;;;;;;;;4989171;28;20201;-62
2022/06/30 03:22:15;;;;;;;3.70;3.40;;;;;;;;;;4989377;28;20679;-63
2022/06/30 03:24:48;;;;;;;3.60;3.30;;;;;;;;;;4982737;28;20197;-62
2022/06/30 03:27:19;;;;;;;3.93;3.63;;;;;;;;;;4989486;28;20204;-63
2022/06/30 03:29:49;;;;;;;4.17;3.40;;;;;;;;;;4988805;28;20204;-62
2022/06/30 03:32:33;;;;;;;3.50;3.20;;;;;;;;;;4989703;28;20200;-62
2022/06/30 03:35:04;;;;;;;3.47;3.17;;;;;;;;;;4988985;28;20208;-62
2022/06/30 03:37:40;;;;;;;3.60;3.30;;;;;;;;;;4985204;28;20208;-62
2022/06/30 03:40:11;;;;;;;3.90;3.50;;;;;;;;;;4988585;28;20197;-62
2022/06/30 03:42:43;;;;;;;4.00;3.63;;;;;;;;;;4987084;28;20356;-62
2022/06/30 03:45:13;;;;;;;3.90;3.60;;;;;;;;;;4969607;28;20267;-62
2022/06/30 03:47:43;;;;;;;3.60;3.30;;;;;;;;;;4985174;28;20199;-62
2022/06/30 03:50:16;;;;;;;3.90;3.37;;;;;;;;;;4985127;28;20228;-63
2022/06/30 03:52:46;;;;;;;3.50;3.23;;;;;;;;;;4985671;28;20208;-62
2022/06/30 03:55:20;;;;;;;3.70;3.40;;;;;;;;;;4958779;28;20209;-63
2022/06/30 03:57:51;;;;;;;3.77;3.47;;;;;;;;;;4988690;28;20199;-63
2022/06/30 04:00:19;;;;;;;3.43;3.23;;;;;;;;;;4970809;28;20366;-62
2022/06/30 04:02:52;;;;;;;3.70;3.40;;;;;;;;;;4978032;28;20232;-62
2022/06/30 04:05:25;;;;;;;3.73;3.43;;;;;;;;;;4985759;28;20193;-62
2022/06/30 04:08:01;;;;;;;3.97;3.57;;;;;;;;;;4987127;28;20204;-63
2022/06/30 04:10:31;;;;;;;3.97;3.67;;;;;;;;;;4979447;28;20208;-62
2022/06/30 04:13:01;;;;;;;3.90;3.60;;;;;;;;;;4968094;28;20271;-62
2022/06/30 04:15:30;;;;;;;3.80;3.50;;;;;;;;;;4998922;28;20215;-63
2022/06/30 04:18:01;;;;;;;4.03;3.73;;;;;;;;;;4988784;28;20267;-63
2022/06/30 04:20:33;;;;;;;3.83;3.53;;;;;;;;;;4994182;28;20200;-62
2022/06/30 04:23:02;;;;;;;4.00;3.70;;;;;;;;;;4987775;28;20220;-63
2022/06/30 04:25:35;;;;;;;3.97;3.67;;;;;;;;;;4984232;28;20216;-62
2022/06/30 04:28:07;;;;;;;4.07;3.77;;;;;;;;;;4988080;28;20208;-62
2022/06/30 04:33:27;;;;;;;4.07;3.77;;;;;;;;;;4986828;28;20258;-62
2022/06/30 04:35:57;;;;;;;3.80;3.50;;;;;;;;;;4988454;28;20795;-62
2022/06/30 04:38:28;;;;;;;3.97;3.67;;;;;;;;;;4967983;28;20739;-62
2022/06/30 04:43:48;;;;;;;3.83;3.47;;;;;;;;;;4987296;28;20236;-62
2022/06/30 04:46:18;;;;;;;4.20;3.80;;;;;;;;;;4987292;28;20630;-62
2022/06/30 04:48:47;;;;;;;3.90;3.60;;;;;;;;;;4982377;28;20680;-62
2022/06/30 04:51:23;;;;;;;3.63;3.33;;;;;;;;;;4987620;28;20204;-62
2022/06/30 04:53:52;;;;;;;3.90;3.60;;;;;;;;;;4988096;28;20224;-62
2022/06/30 04:56:21;;;;;;;3.70;3.40;;;;;;;;;;4987437;28;20208;-62
2022/06/30 04:58:52;;;;;;;3.53;3.30;;;;;;;;;;4984842;28;20201;-62
2022/06/30 05:01:23;;;;;;;4.10;3.73;;;;;;;;;;4996956;28;20444;-62
2022/06/30 05:03:54;;;;;;;3.83;3.40;;;;;;;;;;4970659;28;20223;-62
2022/06/30 05:06:26;;;;;;;3.43;3.13;;;;;;;;;;4988659;28;20544;-62
2022/06/30 05:08:56;;;;;;;3.80;3.43;;;;;;;;;;4986182;28;21436;-63
2022/06/30 05:11:26;;;;;;;3.53;3.23;;;;;;;;;;4971091;28;20192;-62
2022/06/30 05:13:54;;;;;;;4.20;3.20;;;;;;;;;;4968084;28;20244;-63
2022/06/30 05:16:21;;;;;;;4.63;3.40;;;;;;;;;;4986352;28;20197;-62
2022/06/30 05:18:52;;;;;;;3.43;3.13;;;;;;;;;;4986150;28;20262;-62
2022/06/30 05:21:23;;;;;;;4.43;3.42;;;;;;;;;;4986435;28;20445;-62
2022/06/30 05:26:47;;;;;;;6.07;3.50;;;;;;;;;;4982515;28;20271;-62
2022/06/30 05:29:16;;;;;;;3.50;3.20;;;;;;;;;;4967233;28;20719;-62
2022/06/30 05:31:48;;;;;;;8.37;3.50;;;;;;;;;;4987285;28;20200;-62
2022/06/30 05:34:20;;;;;;;4.40;3.33;;;;;;;;;;4987130;28;20193;-62
2022/06/30 05:37:02;;;;;;;4.40;3.07;;;;;;;;;;4975741;28;20258;-66
2022/06/30 05:39:32;;;;;;;3.83;3.03;;;;;;;;;;4953592;28;20196;-66
2022/06/30 05:42:04;;;;;;;4.57;3.47;;;;;;;;;;4970248;28;20227;-67
2022/06/30 05:44:35;;;;;;;6.87;3.93;;;;;;;;;;4968769;28;20247;-64
2022/06/30 05:47:05;;;;;;;3.57;3.17;;;;;;;;;;4986178;28;20184;-64
2022/06/30 05:49:37;;;;;;;4.13;3.13;;;;;;;;;;4966268;28;20499;-64
2022/06/30 05:52:07;;;;;;;5.43;2.90;;;;;;;;;;4982778;28;20203;-63
2022/06/30 05:54:38;;;;;;;4.80;3.20;;;;;;;;;;4979256;28;20802;-63
2022/06/30 05:57:07;;;;;;;3.20;2.90;;;;;;;;;;4969501;28;20199;-63
2022/06/30 05:59:47;;;;;;;3.87;3.20;;;;;;;;;;4971830;28;20203;-63
2022/06/30 06:02:19;;;;;;;3.70;3.30;;;;;;;;;;4977074;28;20212;-63
2022/06/30 06:04:53;;;;;;;3.40;3.10;;;;;;;;;;4984228;28;20267;-63
2022/06/30 06:07:24;;;;;;;3.27;2.90;;;;;;;;;;4984793;28;20196;-65
2022/06/30 06:09:52;;;;;;;3.10;2.60;;;;;;;;;;4986430;28;20208;-64
2022/06/30 06:12:33;;;;;;;4.43;3.00;;;;;;;;;;4983969;28;20188;-64
2022/06/30 06:15:01;;;;;;;3.53;3.23;;;;;;;;;;4985812;28;20229;-64
2022/06/30 06:17:31;;;;;;;3.40;2.90;;;;;;;;;;4966997;28;20619;-63
2022/06/30 06:20:06;;;;;;;3.43;3.10;;;;;;;;;;4983397;28;20196;-64
2022/06/30 06:22:37;;;;;;;4.30;3.37;;;;;;;;;;4989866;28;20200;-63
2022/06/30 06:25:08;;;;;;;3.40;3.10;;;;;;;;;;4987240;28;20213;-63
2022/06/30 06:27:39;;;;;;;3.53;3.20;;;;;;;;;;4985081;28;20196;-64
2022/06/30 06:30:23;;;;;;;4.10;3.27;;;;;;;;;;4970469;28;20319;-63
2022/06/30 06:32:51;;;;;;;3.30;3.00;;;;;;;;;;4965088;28;20550;-63
2022/06/30 06:35:20;;;;;;;4.60;3.43;;;;;;;;;;4986438;28;20539;-63
2022/06/30 06:37:49;;;;;;;3.50;3.20;;;;;;;;;;4981055;28;20254;-64
2022/06/30 06:40:19;;;;;;;3.50;3.20;;;;;;;;;;4988338;28;20201;-64
2022/06/30 06:42:48;;;;;;;3.50;3.20;;;;;;;;;;4986171;28;20216;-64
2022/06/30 06:45:21;;;;;;;3.97;3.57;;;;;;;;;;4989743;28;20189;-64
2022/06/30 06:47:53;;;;;;;5.47;3.40;;;;;;;;;;4975311;28;20208;-64
2022/06/30 06:50:21;;;;;;;3.30;3.00;;;;;;;;;;4987357;28;20645;-64
2022/06/30 06:52:51;;;;;;;3.40;2.80;;;;;;;;;;4987727;28;20208;-64
2022/06/30 06:55:21;;;;;;;3.70;3.30;;;;;;;;;;4978454;28;20660;-66
2022/06/30 06:57:51;;;;;;;4.00;3.60;;;;;;;;;;4989359;28;20196;-65
2022/06/30 07:00:26;;;;;;;3.67;3.37;;;;;;;;;;4989100;28;20211;-67
2022/06/30 07:02:56;;;;;;;4.20;3.40;;;;;;;;;;4983625;28;20334;-65
2022/06/30 07:05:27;;;;;;;4.40;4.00;;;;;;;;;;4989814;28;20250;-66
2022/06/30 07:08:05;;;;;;;4.30;3.90;;;;;;;;;;4989323;28;20200;-64
2022/06/30 07:10:35;;;;;;;4.73;3.33;;;;;;;;;;4978495;28;21091;-68
2022/06/30 07:13:08;;;;;;;5.13;3.37;;;;;;;;;;4985768;28;20688;-66
2022/06/30 07:15:39;;;;;;;5.10;3.70;;;;;;;;;;4988912;28;20200;-68
2022/06/30 07:18:07;;;;;;;3.70;3.20;;;;;;;;;;4991538;28;20215;-68
2022/06/30 07:20:39;;;;;;;4.50;3.97;;;;;;;;;;4985151;28;20205;-65
2022/06/30 07:23:10;;;;;;;5.50;3.73;;;;;;;;;;4990408;28;20221;-65
2022/06/30 07:25:58;;;;;;;4.63;3.57;;;;;;;;;;4957645;28;20661;-65
2022/06/30 07:28:31;;;;;;;2.90;2.70;;;;;;;;;;4984379;28;20188;-66
2022/06/30 07:31:23;;;;;;;4.70;3.53;;;;;;;;;;4985060;28;20519;-66
2022/06/30 07:33:53;;;;;;;4.33;3.37;;;;;;;;;;4988471;28;20212;-65
2022/06/30 07:36:29;;;;;;;6.10;3.13;;;;;;;;;;4991079;28;20208;-65
2022/06/30 07:39:13;;;;;;;3.80;3.20;;;;;;;;;;4975079;28;20196;-66
2022/06/30 07:41:48;;;;;;;5.00;2.70;;;;;;;;;;4988715;28;20200;-68
2022/06/30 07:44:37;;;;;;;4.50;3.27;;;;;;;;;;4987111;28;20347;-67
2022/06/30 07:47:12;;;;;;;3.87;3.43;;;;;;;;;;4986730;28;20262;-67
2022/06/30 07:49:50;;;;;;;3.67;3.30;;;;;;;;;;4982104;28;21083;-66
2022/06/30 07:52:26;;;;;;;3.70;3.10;;;;;;;;;;4984438;28;20192;-66
2022/06/30 07:54:55;;;;;;;5.17;2.70;;;;;;;;;;4985490;28;20197;-64
2022/06/30 07:57:28;;;;;;;2.90;2.60;;;;;;;;;;4975324;28;20223;-65
2022/06/30 08:00:24;;;;;;;3.50;2.83;;;;;;;;;;4988376;28;20207;-64
2022/06/30 08:03:17;;;;;;;2.80;2.60;;;;;;;;;;4975720;28;20231;-65
2022/06/30 08:05:46;;;;;;;3.00;2.63;;;;;;;;;;4971527;28;20227;-66
2022/06/30 08:08:17;;;;;;;3.63;2.50;;;;;;;;;;4985163;28;20192;-63
2022/06/30 08:10:49;;;;;;;2.73;2.40;;;;;;;;;;4984366;28;20922;-64
2022/06/30 08:13:24;;;;;;;2.67;2.47;;;;;;;;;;4967862;28;20587;-65
2022/06/30 08:15:55;;;;;;;4.10;2.60;;;;;;;;;;4986356;28;20220;-64
2022/06/30 08:18:27;;;;;;;3.20;2.67;;;;;;;;;;4984576;28;20610;-64
2022/06/30 08:21:00;;;;;;;2.80;2.43;;;;;;;;;;4981698;28;20259;-63
2022/06/30 08:23:31;;;;;;;3.73;2.60;;;;;;;;;;4986420;28;20230;-63
2022/06/30 08:26:01;;;;;;;5.90;3.00;;;;;;;;;;4992282;28;20207;-66
2022/06/30 08:28:33;;;;;;;4.23;2.70;;;;;;;;;;4970211;28;20200;-67
2022/06/30 08:31:03;;;;;;;3.03;2.47;;;;;;;;;;4986723;28;20220;-63
2022/06/30 08:33:37;;;;;;;2.97;2.40;;;;;;;;;;4998406;28;20204;-67
2022/06/30 08:36:08;;;;;;;2.57;2.20;;;;;;;;;;4962362;28;20239;-68
2022/06/30 08:38:40;;;;;;;3.97;2.70;;;;;;;;;;4978518;28;20212;-69
2022/06/30 08:44:02;;;;;;;2.87;2.40;;;;;;;;;;4984712;28;20224;-67
2022/06/30 08:46:34;;;;;;;6.83;2.80;;;;;;;;;;4969946;28;20207;-69
2022/06/30 08:49:07;;;;;;;3.23;2.50;;;;;;;;;;4965559;28;20226;-68
2022/06/30 08:51:37;;;;;;;3.17;2.40;;;;;;;;;;4984501;28;20228;-69
2022/06/30 08:54:09;;;;;;;3.57;2.43;;;;;;;;;;4988163;28;20200;-68
2022/06/30 08:56:54;;;;;;;4.43;2.37;;;;;;;;;;4984847;28;21080;-68
2022/06/30 08:59:30;;;;;;;4.87;2.43;;;;;;;;;;4983010;28;20664;-66
2022/06/30 09:02:03;;;;;;;3.03;2.00;;;;;;;;;;4984697;28;20220;-65
2022/06/30 09:04:35;;;;;;;3.20;2.10;;;;;;;;;;4974766;28;20710;-66
2022/06/30 09:07:08;;;;;;;6.00;2.20;;;;;;;;;;4972424;28;20184;-66
2022/06/30 09:09:42;;;;;;;8.37;2.40;;;;;;;;;;4999520;28;20625;-65
2022/06/30 09:12:18;;;;;;;4.30;2.30;;;;;;;;;;4986944;28;20192;-66
2022/06/30 09:14:48;;;;;;;2.40;1.87;;;;;;;;;;4995370;28;20251;-66
2022/06/30 09:17:22;;;;;;;4.97;2.17;;;;;;;;;;4986618;28;20196;-67
2022/06/30 09:20:10;;;;;;;4.53;2.00;;;;;;;;;;4978970;28;20197;-65
2022/06/30 09:22:43;;;;;;;2.63;1.70;;;;;;;;;;4984897;28;20191;-65
2022/06/30 09:25:16;;;;;;;2.53;1.70;;;;;;;;;;4987470;28;20727;-66
2022/06/30 09:27:52;;;;;;;2.80;1.80;;;;;;;;;;4989803;28;20298;-67
2022/06/30 09:30:23;;;;;;;3.33;1.93;;;;;;;;;;4987276;28;20231;-65
2022/06/30 09:33:02;;;;;;;3.97;1.90;;;;;;;;;;4984704;28;20660;-64
2022/06/30 09:35:44;;;;;;;3.00;1.83;;;;;;;;;;4982509;28;20208;-64
2022/06/30 09:38:14;;;;;;;3.63;2.20;;;;;;;;;;4982286;28;20217;-67
2022/06/30 09:41:01;;;;;;;3.60;2.10;;;;;;;;;;4986364;28;20228;-65
2022/06/30 09:43:35;;;;;;;2.43;1.80;;;;;;;;;;4960906;28;20196;-65
2022/06/30 09:46:06;;;;;;;3.07;1.97;;;;;;;;;;4972001;28;20537;-63
2022/06/30 09:48:41;;;;;;;3.53;2.03;;;;;;;;;;4982599;28;20223;-64
2022/06/30 09:51:12;;;;;;;4.03;2.13;;;;;;;;;;4969053;28;20203;-64
2022/06/30 09:53:43;;;;;;;2.70;2.00;;;;;;;;;;4986036;28;20209;-65
2022/06/30 09:56:16;;;;;;;2.80;2.07;;;;;;;;;;4988160;28;20630;-66
2022/06/30 09:58:51;;;;;;;2.53;1.80;;;;;;;;;;4984230;28;20331;-64
2022/06/30 10:01:23;;;;;;;2.70;1.97;;;;;;;;;;4986017;28;20768;-65
2022/06/30 10:04:05;;;;;;;3.13;1.80;;;;;;;;;;4982793;28;20227;-65
2022/06/30 10:06:40;;;;;;;2.53;1.93;;;;;;;;;;4984787;28;20195;-63
2022/06/30 10:09:12;;;;;;;2.90;2.30;;;;;;;;;;4988103;28;20211;-64
2022/06/30 10:11:43;;;;;;;4.07;2.03;;;;;;;;;;4964326;28;20204;-64
2022/06/30 10:14:16;;;;;;;2.50;1.77;;;;;;;;;;4987023;28;20232;-64
2022/06/30 10:16:49;;;;;;;3.83;2.00;;;;;;;;;;4986248;28;20215;-64
2022/06/30 10:19:19;;;;;;;2.53;2.03;;;;;;;;;;4989206;28;20204;-64
2022/06/30 10:21:50;;;;;;;3.53;1.93;;;;;;;;;;4989106;28;20208;-64
2022/06/30 10:24:23;;;;;;;2.30;1.73;;;;;;;;;;4989575;28;20673;-64
2022/06/30 10:27:15;;;;;;;2.50;2.00;;;;;;;;;;4987301;28;20212;-63
2022/06/30 10:29:59;;;;;;;3.20;1.60;;;;;;;;;;4987567;28;20196;-63
2022/06/30 10:32:47;;;;;;;3.40;1.80;;;;;;;;;;4989350;28;20613;-65
2022/06/30 10:35:34;;;;;;;3.50;1.87;;;;;;;;;;4981200;28;20188;-64
2022/06/30 10:38:22;;;;;;;3.60;1.97;;;;;;;;;;4976821;28;20726;-65
2022/06/30 10:41:06;;;;;;;3.90;2.30;;;;;;;;;;4998339;28;20197;-63
2022/06/30 10:43:59;;;;;;;3.17;1.87;;;;;;;;;;4984402;28;20197;-65
2022/06/30 10:46:29;;;;;;;2.03;1.80;;;;;;;;;;4970023;28;20208;-63
2022/06/30 10:49:00;;;;;;;3.70;2.03;;;;;;;;;;4940710;28;20256;-63
2022/06/30 10:51:31;;;;;;;6.10;1.70;;;;;;;;;;4986898;28;20197;-63
2022/06/30 10:54:00;;;;;;;3.30;1.83;;;;;;;;;;4983658;28;20220;-63
2022/06/30 10:56:48;;;;;;;3.43;1.70;;;;;;;;;;4983318;28;20204;-66
2022/06/30 10:59:34;;;;;;;3.27;2.00;;;;;;;;;;4983531;28;20211;-65
2022/06/30 11:02:12;;;;;;;3.10;1.90;;;;;;;;;;4942620;28;20220;-65
2022/06/30 11:04:45;;;;;;;4.17;2.23;;;;;;;;;;4976884;28;20232;-65
2022/06/30 11:07:19;;;;;;;2.77;1.80;;;;;;;;;;4968996;28;20215;-65
2022/06/30 11:09:55;;;;;;;3.00;2.17;;;;;;;;;;4969066;28;20651;-65
2022/06/30 11:12:39;;;;;;;3.40;2.17;;;;;;;;;;4978456;28;20302;-63
2022/06/30 11:15:06;;;;;;;3.87;2.50;;;;;;;;;;4984190;28;20243;-63
2022/06/30 11:17:40;;;;;;;2.77;2.30;;;;;;;;;;4977339;28;20220;-67
2022/06/30 11:20:13;;;;;;;2.83;1.90;;;;;;;;;;4956714;28;20227;-63
2022/06/30 11:22:47;;;;;;;3.00;2.20;;;;;;;;;;4982353;28;20695;-64
2022/06/30 11:28:14;;;;;;;3.67;2.13;;;;;;;;;;4960603;28;20200;-66
2022/06/30 11:30:44;;;;;;;2.67;2.40;;;;;;;;;;4967508;28;20215;-65
2022/06/30 11:33:16;;;;;;;1.93;1.60;;;;;;;;;;4983649;28;20205;-65
2022/06/30 11:35:47;;;;;;;4.70;2.20;;;;;;;;;;4979115;28;20220;-65
2022/06/30 11:38:14;;;;;;;2.73;1.77;;;;;;;;;;4978481;28;20251;-66
2022/06/30 11:40:43;;;;;;;2.97;1.70;;;;;;;;;;4981078;28;20704;-67
2022/06/30 11:43:23;;;;;;;6.43;1.80;;;;;;;;;;4980926;28;20197;-65
2022/06/30 11:46:03;;;;;;;2.37;1.80;;;;;;;;;;4969093;28;20228;-65
2022/06/30 11:48:37;;;;;;;2.30;1.67;;;;;;;;;;4966349;28;20221;-65
2022/06/30 11:51:33;;;;;;;2.87;1.90;;;;;;;;;;4978881;28;20220;-64
2022/06/30 11:54:07;;;;;;;2.10;1.50;;;;;;;;;;4967814;28;20208;-64
2022/06/30 11:56:54;;;;;;;2.50;1.70;;;;;;;;;;4983416;28;20195;-63
2022/06/30 11:59:23;;;;;;;2.03;1.60;;;;;;;;;;4999109;28;20635;-64
2022/06/30 12:02:11;;;;;;;2.70;1.67;;;;;;;;;;4977175;28;20696;-66
2022/06/30 12:04:43;;;;;;;3.07;1.60;;;;;;;;;;4977371;28;20695;-65
2022/06/30 12:07:18;;;;;;;1.70;1.40;;;;;;;;;;4970304;28;20208;-64
2022/06/30 12:09:56;;;;;;;7.30;1.60;;;;;;;;;;4976860;28;20666;-64
2022/06/30 12:12:33;;;;;;;1.77;1.33;;;;;;;;;;4980188;28;20283;-67
2022/06/30 12:15:06;;;;;;;3.53;1.47;;;;;;;;;;4987204;28;20310;-69
2022/06/30 12:17:39;;;;;;;2.60;1.90;;;;;;;;;;4985153;28;20598;-68
2022/06/30 12:20:17;;;;;;;2.17;1.60;;;;;;;;;;4970436;28;20215;-64
2022/06/30 12:22:48;;;;;;;2.43;1.60;;;;;;;;;;4980777;28;20236;-66
2022/06/30 12:25:20;;;;;;;2.63;1.87;;;;;;;;;;4964465;28;20243;-66
2022/06/30 12:28:03;;;;;;;2.43;1.70;;;;;;;;;;4981903;28;20196;-67
2022/06/30 12:30:36;;;;;;;4.37;1.93;;;;;;;;;;4997375;28;20208;-66
2022/06/30 12:33:10;;;;;;;2.77;1.70;;;;;;;;;;4984576;28;20208;-67
2022/06/30 12:35:39;;;;;;;2.63;2.00;;;;;;;;;;4984436;28;20216;-67
2022/06/30 12:38:24;;;;;;;3.27;1.93;;;;;;;;;;4977023;28;20215;-67
2022/06/30 12:40:57;;;;;;;3.73;1.80;;;;;;;;;;4983234;28;20689;-66
2022/06/30 12:43:41;;;;;;;2.23;1.90;;;;;;;;;;4984619;28;20546;-68
2022/06/30 12:46:12;;;;;;;2.20;1.60;;;;;;;;;;4984536;28;20225;-66
2022/06/30 12:48:54;;;;;;;1.97;1.60;;;;;;;;;;4961199;28;20200;-67
2022/06/30 12:51:35;;;;;;;2.67;1.70;;;;;;;;;;4981450;28;20196;-65
2022/06/30 12:54:11;;;;;;;2.83;1.63;;;;;;;;;;4983358;28;20207;-65
2022/06/30 12:56:50;;;;;;;2.27;1.80;;;;;;;;;;4949248;28;20311;-67
2022/06/30 12:59:22;;;;;;;2.00;1.60;;;;;;;;;;4952863;28;20204;-68
2022/06/30 13:01:55;;;;;;;2.90;1.60;;;;;;;;;;4979201;28;20216;-69
2022/06/30 13:04:23;;;;;;;2.83;1.73;;;;;;;;;;4983868;28;20220;-67
2022/06/30 13:07:01;;;;;;;3.13;1.87;;;;;;;;;;4980628;28;20206;-67
2022/06/30 13:09:36;;;;;;;2.73;1.73;;;;;;;;;;4984546;28;20645;-66
2022/06/30 13:12:10;;;;;;;2.60;1.53;;;;;;;;;;4983987;28;20196;-65
2022/06/30 13:14:48;;;;;;;2.50;1.70;;;;;;;;;;4976430;28;20936;-65
2022/06/30 13:17:37;;;;;;;1.93;1.60;;;;;;;;;;4981696;28;20212;-66
2022/06/30 13:20:10;;;;;;;3.03;1.43;;;;;;;;;;4976752;28;20212;-66
2022/06/30 13:22:41;;;;;;;1.87;1.70;;;;;;;;;;4981511;28;20196;-69
2022/06/30 13:25:14;;;;;;;2.80;1.60;;;;;;;;;;4974574;28;20618;-68
2022/06/30 13:27:45;;;;;;;5.60;2.20;;;;;;;;;;4979188;28;20222;-67
2022/06/30 13:30:19;;;;;;;2.43;1.50;;;;;;;;;;4966286;28;20193;-69
2022/06/30 13:32:50;;;;;;;1.67;1.50;;;;;;;;;;4979577;28;20216;-68
2022/06/30 13:35:20;;;;;;;2.03;1.63;;;;;;;;;;4973937;28;20209;-68
2022/06/30 13:37:51;;;;;;;1.67;1.50;;;;;;;;;;4976344;28;20235;-65
2022/06/30 13:40:20;;;;;;;2.20;1.80;;;;;;;;;;4977559;28;20555;-66
2022/06/30 13:42:54;;;;;;;1.57;1.17;;;;;;;;;;4975744;28;20639;-67
2022/06/30 13:45:25;;;;;;;2.43;1.50;;;;;;;;;;4980756;28;20236;-65
2022/06/30 13:47:56;;;;;;;1.80;1.50;;;;;;;;;;4983186;28;20592;-65
2022/06/30 13:50:28;;;;;;;2.30;1.33;;;;;;;;;;4978146;28;20204;-65
2022/06/30 13:53:00;;;;;;;1.87;1.57;;;;;;;;;;4981353;28;20211;-66
2022/06/30 13:55:32;;;;;;;4.27;2.10;;;;;;;;;;4956836;28;20278;-65
2022/06/30 13:58:03;;;;;;;4.20;1.90;;;;;;;;;;4967211;28;20204;-66
2022/06/30 14:00:35;;;;;;;2.23;1.90;;;;;;;;;;4967083;28;20208;-65
2022/06/30 14:03:04;;;;;;;2.37;1.70;;;;;;;;;;4985199;28;20311;-66
2022/06/30 14:05:42;;;;;;;1.43;1.33;;;;;;;;;;4985298;28;21037;-64
2022/06/30 14:08:15;;;;;;;3.10;1.50;;;;;;;;;;4985815;28;20239;-68
2022/06/30 14:10:50;;;;;;;2.10;1.93;;;;;;;;;;4984458;28;20270;-65
2022/06/30 14:13:27;;;;;;;2.20;1.70;;;;;;;;;;4966429;28;20295;-67
2022/06/30 14:15:55;;;;;;;4.20;2.10;;;;;;;;;;4968892;28;20207;-66
2022/06/30 14:18:25;;;;;;;2.03;1.80;;;;;;;;;;4984753;28;20212;-67
2022/06/30 14:21:02;;;;;;;4.00;2.27;;;;;;;;;;4981202;28;20281;-69
2022/06/30 14:23:38;;;;;;;3.03;2.00;;;;;;;;;;4984259;28;20207;-67
2022/06/30 14:26:11;;;;;;;2.13;1.70;;;;;;;;;;4980061;28;20255;-69
2022/06/30 14:28:43;;;;;;;2.30;1.70;;;;;;;;;;4973714;28;20204;-67
2022/06/30 14:31:17;;;;;;;2.40;1.67;;;;;;;;;;4969448;28;20270;-62
2022/06/30 14:34:03;;;;;;;3.70;2.30;;;;;;;;;;4979043;28;20291;-63
2022/06/30 14:36:33;;;;;;;5.20;2.27;;;;;;;;;;4981074;28;20604;-62
2022/06/30 14:39:02;;;;;;;4.20;2.20;;;;;;;;;;4982053;28;20618;-62
2022/06/30 14:44:18;;;;;;;4.00;2.20;;;;;;;;;;4982483;28;20235;-64
2022/06/30 14:46:49;;;;;;;8.43;2.57;;;;;;;;;;4966337;28;20303;-66
2022/06/30 14:49:18;;;;;;;2.40;2.10;;;;;;;;;;4986516;28;20731;-69
2022/06/30 14:52:01;;;;;;;2.17;1.97;;;;;;;;;;4968287;28;20204;-63
2022/06/30 14:54:33;;;;;;;2.20;2.00;;;;;;;;;;4966626;28;20206;-63
2022/06/30 14:57:03;;;;;;;3.33;2.43;;;;;;;;;;4983975;28;20207;-65
2022/06/30 14:59:32;;;;;;;4.90;2.90;;;;;;;;;;4982417;28;20188;-65
2022/06/30 15:02:03;;;;;;;17.67;5.80;;;;;;;;;;4966245;28;20609;-63
2022/06/30 15:04:34;;;;;;;15.70;6.33;;;;;;;;;;4981083;28;20231;-63
2022/06/30 15:07:06;;;;;;;12.10;5.67;;;;;;;;;;4981958;28;20227;-62
2022/06/30 15:09:36;;;;;;;12.53;5.87;;;;;;;;;;4966002;28;20566;-62
2022/06/30 15:12:07;;;;;;;10.93;5.10;;;;;;;;;;4969994;28;20207;-62
2022/06/30 15:14:44;;;;;;;14.60;5.67;;;;;;;;;;4976613;28;20275;-61
2022/06/30 15:17:16;;;;;;;10.70;5.23;;;;;;;;;;4953267;28;20208;-63
2022/06/30 15:19:48;;;;;;;8.47;4.47;;;;;;;;;;4985326;28;20783;-62
2022/06/30 15:25:07;;;;;;;8.57;4.03;;;;;;;;;;4982144;28;20310;-62
2022/06/30 15:27:43;;;;;;;9.20;3.90;;;;;;;;;;4979537;28;20211;-62
2022/06/30 15:30:14;;;;;;;9.30;4.13;;;;;;;;;;4983950;28;20196;-61
2022/06/30 15:32:46;;;;;;;4.70;3.10;;;;;;;;;;4976326;28;20699;-61
2022/06/30 15:35:17;;;;;;;5.03;3.03;;;;;;;;;;4985391;28;20208;-63
2022/06/30 15:37:51;;;;;;;5.57;3.10;;;;;;;;;;4963106;28;20554;-63
2022/06/30 15:40:21;;;;;;;5.53;3.33;;;;;;;;;;4980121;28;20220;-63
2022/06/30 15:42:49;;;;;;;6.37;3.43;;;;;;;;;;4993778;28;20208;-63